createdAt,value
2018-05-19T00:00:13.420Z,14.21
2018-05-19T00:02:40.952Z,14.23
2018-05-19T00:05:08.492Z,14.23
2018-05-19T00:07:36.048Z,14.19
2018-05-19T00:10:03.597Z,14.21
2018-05-19T00:12:31.161Z,14.19
2018-05-19T00:14:58.756Z,14.18
2018-05-19T00:17:27.352Z,14.21
2018-05-19T00:19:54.893Z,14.21
2018-05-19T00:22:22.453Z,14.21
2018-05-19T00:24:49.984Z,14.10
2018-05-19T00:27:17.516Z,14.14
2018-05-19T00:29:45.088Z,14.22
2018-05-19T00:32:12.616Z,14.19
2018-05-19T00:34:40.176Z,14.21
2018-05-19T00:37:07.741Z,14.22
2018-05-19T00:39:35.348Z,14.18
2018-05-19T00:42:02.881Z,14.20
2018-05-19T00:44:30.793Z,14.31
2018-05-19T00:46:58.328Z,14.22
2018-05-19T00:49:25.861Z,14.30
2018-05-19T00:51:53.571Z,14.28
2018-05-19T00:54:21.116Z,14.20
2018-05-19T00:56:48.644Z,14.16
2018-05-19T00:59:16.361Z,14.17
2018-05-19T01:01:43.895Z,14.16
2018-05-19T01:04:11.416Z,14.15
2018-05-19T01:06:39.156Z,14.13
2018-05-19T01:09:06.693Z,14.07
2018-05-19T01:11:34.225Z,14.11
2018-05-19T01:14:01.913Z,14.12
2018-05-19T01:16:29.444Z,14.08
2018-05-19T01:18:56.987Z,14.02
2018-05-19T01:21:24.712Z,13.97
2018-05-19T01:23:52.420Z,13.99
2018-05-19T01:26:19.950Z,13.90
2018-05-19T01:28:47.540Z,13.87
2018-05-19T01:31:15.073Z,13.77
2018-05-19T01:33:42.609Z,13.70
2018-05-19T01:36:10.193Z,13.74
2018-05-19T01:38:37.725Z,13.73
2018-05-19T01:41:05.257Z,13.69
2018-05-19T01:43:32.909Z,13.66
2018-05-19T01:46:00.436Z,13.61
2018-05-19T01:48:27.956Z,13.66
2018-05-19T01:50:55.643Z,13.67
2018-05-19T01:53:23.169Z,13.63
2018-05-19T01:55:50.974Z,13.65
2018-05-19T01:58:18.537Z,13.64
2018-05-19T02:00:47.202Z,13.58
2018-05-19T02:03:14.739Z,13.62
2018-05-19T02:05:42.291Z,13.64
2018-05-19T02:08:09.817Z,13.68
2018-05-19T02:10:37.342Z,13.65
2018-05-19T02:13:05.288Z,13.64
2018-05-19T02:15:32.808Z,13.60
2018-05-19T02:18:00.332Z,13.63
2018-05-19T02:20:28.072Z,13.63
2018-05-19T02:22:55.604Z,13.56
2018-05-19T02:25:23.128Z,13.59
2018-05-19T02:27:51.060Z,13.55
2018-05-19T02:30:18.611Z,13.57
2018-05-19T02:32:46.138Z,13.61
2018-05-19T02:35:13.835Z,13.57
2018-05-19T02:37:41.370Z,13.54
2018-05-19T02:40:08.904Z,13.55
2018-05-19T02:42:37.114Z,13.54
2018-05-19T02:45:04.637Z,13.45
2018-05-19T02:47:32.210Z,13.35
2018-05-19T02:49:59.783Z,13.34
2018-05-19T02:52:27.317Z,13.25
2018-05-19T02:54:54.851Z,13.29
2018-05-19T02:57:22.826Z,13.31
2018-05-19T02:59:50.368Z,13.33
2018-05-19T03:02:17.899Z,13.25
2018-05-19T03:04:45.680Z,13.26
2018-05-19T03:07:13.241Z,13.23
2018-05-19T03:09:40.765Z,13.22
2018-05-19T03:12:08.563Z,13.18
2018-05-19T03:14:36.093Z,13.12
2018-05-19T03:17:03.621Z,12.97
2018-05-19T03:19:31.181Z,12.98
2018-05-19T03:21:58.712Z,13.04
2018-05-19T03:24:26.245Z,13.14
2018-05-19T03:26:54.016Z,13.13
2018-05-19T03:29:21.532Z,13.11
2018-05-19T03:31:49.057Z,13.12
2018-05-19T03:34:16.629Z,13.13
2018-05-19T03:36:44.152Z,13.11
2018-05-19T03:39:11.681Z,12.98
2018-05-19T03:41:39.584Z,13.10
2018-05-19T03:44:07.115Z,13.17
2018-05-19T03:46:34.636Z,13.12
2018-05-19T03:49:02.195Z,13.26
2018-05-19T03:51:29.721Z,13.24
2018-05-19T03:53:57.340Z,13.33
2018-05-19T03:56:25.257Z,13.43
2018-05-19T03:59:05.197Z,13.46
2018-05-19T04:01:44.945Z,13.57
2018-05-19T04:04:12.626Z,13.62
2018-05-19T04:06:40.444Z,13.55
2018-05-19T04:09:08.142Z,13.50
2018-05-19T04:11:35.851Z,13.52
2018-05-19T04:14:03.678Z,13.63
2018-05-19T04:16:31.161Z,13.65
2018-05-19T04:18:58.790Z,13.66
2018-05-19T04:21:26.348Z,13.67
2018-05-19T04:23:54.424Z,13.76
2018-05-19T04:26:22.298Z,13.86
2018-05-19T04:28:50.173Z,13.88
2018-05-19T04:31:18.337Z,13.85
2018-05-19T04:33:46.192Z,13.93
2018-05-19T04:36:13.995Z,13.98
2018-05-19T04:38:41.912Z,14.03
2018-05-19T04:41:09.708Z,13.91
2018-05-19T04:43:37.236Z,13.97
2018-05-19T04:46:04.949Z,13.96
2018-05-19T04:48:32.480Z,14.03
2018-05-19T04:51:00.029Z,14.03
2018-05-19T04:53:27.768Z,14.11
2018-05-19T04:55:55.298Z,14.13
2018-05-19T04:58:23.673Z,14.10
2018-05-19T05:00:51.439Z,14.22
2018-05-19T05:03:19.240Z,14.30
2018-05-19T05:05:46.828Z,14.39
2018-05-19T05:08:14.392Z,14.50
2018-05-19T05:10:42.980Z,14.51
2018-05-19T05:13:10.533Z,14.54
2018-05-19T05:15:38.184Z,14.61
2018-05-19T05:18:05.780Z,14.60
2018-05-19T05:20:33.316Z,14.69
2018-05-19T05:23:01.048Z,14.92
2018-05-19T05:25:28.581Z,15.04
2018-05-19T05:27:56.117Z,15.18
2018-05-19T05:30:23.928Z,15.37
2018-05-19T05:32:51.457Z,15.63
2018-05-19T05:35:18.977Z,15.89
2018-05-19T05:37:47.438Z,16.01
2018-05-19T05:40:14.906Z,16.11
2018-05-19T05:42:42.429Z,16.34
2018-05-19T05:45:10.103Z,16.62
2018-05-19T05:47:37.621Z,16.62
2018-05-19T05:50:05.250Z,16.48
2018-05-19T05:52:32.988Z,16.70
2018-05-19T05:55:00.532Z,17.07
2018-05-19T05:57:28.061Z,17.32
2018-05-19T05:59:56.629Z,17.34
2018-05-19T06:02:24.242Z,17.61
2018-05-19T06:04:51.766Z,18.04
2018-05-19T06:07:19.345Z,17.98
2018-05-19T06:09:46.872Z,18.08
2018-05-19T06:12:14.405Z,17.69
2018-05-19T06:14:41.967Z,17.25
2018-05-19T06:17:09.496Z,17.49
2018-05-19T06:19:37.025Z,18.02
2018-05-19T06:22:04.593Z,18.37
2018-05-19T06:24:32.123Z,18.70
2018-05-19T06:26:59.675Z,18.85
2018-05-19T06:29:27.504Z,18.95
2018-05-19T06:31:55.532Z,18.46
2018-05-19T06:34:23.061Z,17.96
2018-05-19T06:36:50.795Z,18.29
2018-05-19T06:39:18.312Z,18.80
2018-05-19T06:41:45.845Z,19.07
2018-05-19T06:44:13.573Z,19.84
2018-05-19T06:46:41.101Z,20.02
2018-05-19T06:49:08.649Z,20.20
2018-05-19T06:51:36.373Z,20.31
2018-05-19T06:54:03.898Z,20.82
2018-05-19T06:56:32.419Z,20.74
2018-05-19T06:58:59.999Z,20.83
2018-05-19T07:01:27.521Z,21.18
2018-05-19T07:03:55.050Z,20.93
2018-05-19T07:06:23.270Z,21.27
2018-05-19T07:08:50.808Z,21.65
2018-05-19T07:11:18.344Z,21.46
2018-05-19T07:13:46.045Z,22.01
2018-05-19T07:16:13.564Z,22.48
2018-05-19T07:18:41.088Z,22.69
2018-05-19T07:21:08.740Z,21.95
2018-05-19T07:23:36.264Z,21.73
2018-05-19T07:26:03.801Z,21.85
2018-05-19T07:28:31.697Z,22.07
2018-05-19T07:30:59.227Z,21.86
2018-05-19T07:33:26.756Z,21.88
2018-05-19T07:35:54.480Z,21.83
2018-05-19T07:38:22.009Z,21.85
2018-05-19T07:40:49.561Z,22.36
2018-05-19T07:43:17.363Z,21.25
2018-05-19T07:45:44.888Z,21.06
2018-05-19T07:48:12.420Z,20.75
2018-05-19T07:50:40.084Z,21.14
2018-05-19T07:53:07.617Z,21.10
2018-05-19T07:55:35.173Z,21.64
2018-05-19T07:58:03.554Z,22.09
2018-05-19T08:00:31.077Z,22.42
2018-05-19T08:02:58.612Z,21.81
2018-05-19T08:05:26.538Z,21.99
2018-05-19T08:07:54.070Z,22.12
2018-05-19T08:10:21.605Z,22.64
2018-05-19T08:12:49.417Z,22.91
2018-05-19T08:15:16.941Z,22.90
2018-05-19T08:17:44.488Z,23.14
2018-05-19T08:20:12.285Z,23.90
2018-05-19T08:22:39.814Z,23.13
2018-05-19T08:25:08.316Z,23.46
2018-05-19T08:27:36.192Z,23.19
2018-05-19T08:30:03.754Z,23.84
2018-05-19T08:32:31.286Z,24.93
2018-05-19T08:34:59.941Z,24.73
2018-05-19T08:37:27.461Z,24.93
2018-05-19T08:39:54.989Z,25.46
2018-05-19T08:42:22.581Z,26.47
2018-05-19T08:44:50.662Z,27.27
2018-05-19T08:47:18.192Z,27.44
2018-05-19T08:49:46.208Z,27.14
2018-05-19T08:52:13.740Z,26.63
2018-05-19T08:54:41.273Z,25.71
2018-05-19T08:57:08.953Z,25.51
2018-05-19T08:59:36.478Z,25.40
2018-05-19T09:02:04.041Z,25.75
2018-05-19T09:04:34.300Z,25.52
2018-05-19T09:07:01.821Z,26.68
2018-05-19T09:09:29.364Z,26.15
2018-05-19T09:11:57.041Z,26.67
2018-05-19T09:14:24.736Z,26.99
2018-05-19T09:16:52.265Z,27.83
2018-05-19T09:19:20.211Z,28.78
2018-05-19T09:21:47.740Z,29.69
2018-05-19T09:24:15.403Z,30.67
2018-05-19T09:26:43.270Z,31.55
2018-05-19T09:29:11.726Z,31.93
2018-05-19T09:31:39.497Z,30.77
2018-05-19T09:34:07.361Z,29.87
2018-05-19T09:36:34.881Z,29.30
2018-05-19T09:39:02.406Z,28.93
2018-05-19T09:41:30.014Z,28.44
2018-05-19T09:43:57.548Z,28.01
2018-05-19T09:46:25.106Z,27.82
2018-05-19T09:48:53.149Z,28.20
2018-05-19T09:51:20.672Z,28.90
2018-05-19T09:53:48.471Z,29.15
2018-05-19T09:56:16.260Z,29.21
2018-05-19T09:58:43.894Z,29.57
2018-05-19T10:01:11.628Z,30.15
2018-05-19T10:03:39.254Z,30.05
2018-05-19T10:06:06.797Z,31.20
2018-05-19T10:08:34.405Z,31.90
2018-05-19T10:11:02.063Z,31.77
2018-05-19T10:13:29.600Z,30.90
2018-05-19T10:15:57.221Z,29.97
2018-05-19T10:18:24.963Z,31.57
2018-05-19T10:20:52.501Z,31.16
2018-05-19T10:23:20.045Z,32.47
2018-05-19T10:25:47.625Z,29.54
2018-05-19T10:28:15.210Z,29.08
2018-05-19T10:30:42.691Z,29.75
2018-05-19T10:33:10.428Z,31.70
2018-05-19T10:35:37.948Z,31.94
2018-05-19T10:38:05.476Z,31.23
2018-05-19T10:40:33.052Z,31.97
2018-05-19T10:43:00.788Z,31.91
2018-05-19T10:45:28.328Z,31.77
2018-05-19T10:47:56.536Z,31.13
2018-05-19T10:50:24.071Z,30.72
2018-05-19T10:52:51.596Z,30.26
2018-05-19T10:55:19.296Z,30.01
2018-05-19T10:57:46.823Z,30.57
2018-05-19T11:00:14.373Z,31.97
2018-05-19T11:02:42.065Z,31.94
2018-05-19T11:05:09.594Z,32.71
2018-05-19T11:07:37.609Z,31.34
2018-05-19T11:10:05.360Z,30.51
2018-05-19T11:12:32.884Z,29.38
2018-05-19T11:15:00.405Z,29.11
2018-05-19T11:17:27.961Z,30.70
2018-05-19T11:19:55.488Z,32.17
2018-05-19T11:22:23.016Z,32.37
2018-05-19T11:24:50.911Z,29.99
2018-05-19T11:27:18.456Z,30.07
2018-05-19T11:29:45.980Z,31.41
2018-05-19T11:32:13.750Z,31.22
2018-05-19T11:34:41.307Z,30.57
2018-05-19T11:37:08.845Z,29.21
2018-05-19T11:39:37.696Z,30.19
2018-05-19T11:42:05.270Z,32.10
2018-05-19T11:44:34.067Z,33.71
2018-05-19T11:47:01.632Z,33.20
2018-05-19T11:49:29.297Z,34.00
2018-05-19T11:51:56.899Z,34.81
2018-05-19T11:54:24.464Z,33.23
2018-05-19T11:56:52.075Z,32.88
2018-05-19T11:59:19.546Z,34.51
2018-05-19T12:01:47.264Z,33.30
2018-05-19T12:04:14.797Z,30.91
2018-05-19T12:06:42.339Z,29.96
2018-05-19T12:09:10.100Z,30.42
2018-05-19T12:11:37.632Z,31.60
2018-05-19T12:14:05.153Z,32.98
2018-05-19T12:16:32.723Z,33.54
2018-05-19T12:19:01.482Z,33.85
2018-05-19T12:21:29.050Z,32.91
2018-05-19T12:23:57.657Z,32.16
2018-05-19T12:26:25.452Z,31.96
2018-05-19T12:28:53.045Z,33.05
2018-05-19T12:31:20.629Z,32.39
2018-05-19T12:33:48.173Z,33.87
2018-05-19T12:36:15.721Z,35.38
2018-05-19T12:38:43.550Z,34.70
2018-05-19T12:41:11.141Z,35.05
2018-05-19T12:43:38.771Z,35.96
2018-05-19T12:46:06.341Z,36.69
2018-05-19T12:48:33.868Z,36.13
2018-05-19T12:51:01.495Z,34.39
2018-05-19T12:53:29.190Z,31.85
2018-05-19T12:55:57.078Z,31.10
2018-05-19T12:58:24.605Z,31.87
2018-05-19T13:00:52.388Z,32.69
2018-05-19T13:03:21.188Z,33.44
2018-05-19T13:05:48.720Z,32.79
2018-05-19T13:08:16.309Z,31.58
2018-05-19T13:10:43.841Z,30.94
2018-05-19T13:13:11.369Z,31.55
2018-05-19T13:15:39.070Z,30.88
2018-05-19T13:18:06.605Z,31.58
2018-05-19T13:20:34.149Z,31.77
2018-05-19T13:23:01.725Z,33.19
2018-05-19T13:25:29.307Z,32.56
2018-05-19T13:27:56.825Z,33.68
2018-05-19T13:30:24.527Z,33.67
2018-05-19T13:32:52.051Z,33.79
2018-05-19T13:35:19.581Z,34.80
2018-05-19T13:37:47.185Z,34.14
2018-05-19T13:40:14.709Z,35.09
2018-05-19T13:42:42.243Z,35.47
2018-05-19T13:45:10.153Z,35.78
2018-05-19T13:47:37.683Z,34.49
2018-05-19T13:50:05.226Z,34.46
2018-05-19T13:52:32.975Z,34.08
2018-05-19T13:55:00.509Z,33.98
2018-05-19T13:57:28.060Z,34.32
2018-05-19T13:59:55.617Z,34.28
2018-05-19T14:02:23.139Z,34.26
2018-05-19T14:04:50.797Z,33.67
2018-05-19T14:07:18.565Z,34.28
2018-05-19T14:09:46.109Z,33.18
2018-05-19T14:12:13.673Z,33.86
2018-05-19T14:14:41.312Z,33.88
2018-05-19T14:17:08.891Z,34.48
2018-05-19T14:19:36.456Z,33.46
2018-05-19T14:22:04.403Z,33.23
2018-05-19T14:24:31.986Z,33.05
2018-05-19T14:26:59.507Z,32.95
2018-05-19T14:29:27.084Z,32.57
2018-05-19T14:31:54.619Z,32.34
2018-05-19T14:34:23.099Z,31.65
2018-05-19T14:36:50.795Z,30.64
2018-05-19T14:39:18.327Z,30.29
2018-05-19T14:41:46.947Z,30.03
2018-05-19T14:44:14.497Z,29.96
2018-05-19T14:46:42.032Z,28.71
2018-05-19T14:49:09.556Z,28.83
2018-05-19T14:51:37.529Z,28.74
2018-05-19T14:54:05.257Z,27.88
2018-05-19T14:56:32.781Z,27.54
2018-05-19T14:59:00.576Z,27.58
2018-05-19T15:01:29.449Z,27.45
2018-05-19T15:03:57.140Z,27.29
2018-05-19T15:06:24.771Z,27.38
2018-05-19T15:08:52.332Z,27.24
2018-05-19T15:11:19.864Z,27.17
2018-05-19T15:13:47.982Z,27.12
2018-05-19T15:16:15.540Z,26.67
2018-05-19T15:18:43.072Z,26.17
2018-05-19T15:21:11.262Z,26.41
2018-05-19T15:23:38.832Z,26.01
2018-05-19T15:26:06.439Z,26.37
2018-05-19T15:28:34.132Z,26.46
2018-05-19T15:31:01.772Z,26.28
2018-05-19T15:33:29.295Z,26.10
2018-05-19T15:35:57.359Z,26.13
2018-05-19T15:38:25.108Z,25.94
2018-05-19T15:40:52.700Z,26.04
2018-05-19T15:43:21.661Z,26.07
2018-05-19T15:45:50.346Z,25.85
2018-05-19T15:48:18.584Z,25.86
2018-05-19T15:50:46.695Z,25.94
2018-05-19T15:53:15.238Z,25.95
2018-05-19T15:55:42.768Z,25.70
2018-05-19T15:58:10.477Z,25.37
2018-05-19T16:00:38.981Z,25.28
2018-05-19T16:03:06.632Z,25.40
2018-05-19T16:05:34.197Z,25.33
2018-05-19T16:08:01.713Z,24.99
2018-05-19T16:10:29.263Z,24.65
2018-05-19T16:12:57.072Z,24.55
2018-05-19T16:15:24.597Z,24.47
2018-05-19T16:17:52.118Z,24.41
2018-05-19T16:20:20.051Z,24.38
2018-05-19T16:22:47.584Z,24.33
2018-05-19T16:25:15.112Z,24.50
2018-05-19T16:27:42.672Z,24.43
2018-05-19T16:30:11.235Z,24.59
2018-05-19T16:32:38.798Z,24.76
2018-05-19T16:35:06.645Z,24.74
2018-05-19T16:37:34.176Z,24.84
2018-05-19T16:40:01.704Z,24.83
2018-05-19T16:42:29.416Z,24.50
2018-05-19T16:44:56.944Z,24.59
2018-05-19T16:47:24.473Z,24.59
2018-05-19T16:49:52.199Z,24.47
2018-05-19T16:52:19.721Z,24.41
2018-05-19T16:54:47.253Z,24.47
2018-05-19T16:57:15.185Z,24.46
2018-05-19T16:59:42.703Z,24.20
2018-05-19T17:02:10.258Z,24.05
2018-05-19T17:04:37.920Z,24.40
2018-05-19T17:07:05.456Z,24.33
2018-05-19T17:09:32.978Z,24.33
2018-05-19T17:12:00.893Z,24.48
2018-05-19T17:14:28.429Z,24.63
2018-05-19T17:16:55.990Z,24.48
2018-05-19T17:19:23.797Z,24.47
2018-05-19T17:21:51.357Z,24.18
2018-05-19T17:24:18.885Z,24.23
2018-05-19T17:26:46.433Z,24.11
2018-05-19T17:29:14.067Z,24.21
2018-05-19T17:31:41.647Z,23.95
2018-05-19T17:34:09.376Z,24.09
2018-05-19T17:36:36.944Z,24.04
2018-05-19T17:39:05.227Z,24.07
2018-05-19T17:41:32.812Z,23.81
2018-05-19T17:44:00.342Z,23.85
2018-05-19T17:46:27.873Z,23.91
2018-05-19T17:48:55.577Z,23.63
2018-05-19T17:51:23.109Z,23.74
2018-05-19T17:53:50.636Z,23.47
2018-05-19T17:56:18.362Z,23.37
2018-05-19T17:58:45.901Z,23.43
2018-05-19T18:01:13.423Z,23.02
2018-05-19T18:03:40.994Z,23.22
2018-05-19T18:06:08.563Z,23.11
2018-05-19T18:08:36.092Z,23.06
2018-05-19T18:11:03.765Z,22.81
2018-05-19T18:13:31.284Z,22.83
2018-05-19T18:15:58.821Z,22.65
2018-05-19T18:18:26.584Z,22.60
2018-05-19T18:20:54.174Z,22.48
2018-05-19T18:23:21.713Z,22.35
2018-05-19T18:25:49.482Z,22.39
2018-05-19T18:28:17.024Z,22.31
2018-05-19T18:30:44.544Z,22.25
2018-05-19T18:33:12.561Z,21.89
2018-05-19T18:35:40.177Z,21.90
2018-05-19T18:38:07.641Z,21.59
2018-05-19T18:40:35.669Z,21.53
2018-05-19T18:43:03.196Z,21.45
2018-05-19T18:45:30.724Z,21.51
2018-05-19T18:47:58.279Z,21.46
2018-05-19T18:50:25.805Z,21.41
2018-05-19T18:53:00.227Z,21.53
2018-05-19T18:55:27.758Z,21.41
2018-05-19T18:57:56.367Z,21.09
2018-05-19T19:00:24.144Z,21.05
2018-05-19T19:02:51.704Z,20.90
2018-05-19T19:05:19.242Z,20.96
2018-05-19T19:07:46.988Z,20.83
2018-05-19T19:10:14.570Z,20.91
2018-05-19T19:12:42.830Z,20.81
2018-05-19T19:15:10.608Z,20.84
2018-05-19T19:17:38.375Z,20.81
2018-05-19T19:20:05.930Z,20.70
2018-05-19T19:22:33.603Z,20.61
2018-05-19T19:25:01.143Z,20.45
2018-05-19T19:27:28.918Z,20.46
2018-05-19T19:29:56.681Z,20.53
2018-05-19T19:32:24.355Z,20.52
2018-05-19T19:34:52.005Z,20.44
2018-05-19T19:37:19.868Z,20.41
2018-05-19T19:39:47.417Z,19.86
2018-05-19T19:42:15.097Z,19.23
2018-05-19T19:44:42.754Z,18.82
2018-05-19T19:47:10.346Z,17.83
2018-05-19T19:49:37.953Z,16.98
2018-05-19T19:52:05.540Z,16.61
2018-05-19T19:54:33.060Z,16.45
2018-05-19T19:57:00.591Z,16.70
2018-05-19T19:59:28.409Z,16.74
2018-05-19T20:01:55.997Z,16.88
2018-05-19T20:04:23.593Z,16.81
2018-05-19T20:06:51.504Z,16.80
2018-05-19T20:09:19.114Z,17.07
2018-05-19T20:11:47.135Z,16.77
2018-05-19T20:14:15.002Z,16.64
2018-05-19T20:16:42.579Z,17.11
2018-05-19T20:19:10.101Z,17.17
2018-05-19T20:21:38.092Z,17.23
2018-05-19T20:24:05.628Z,16.91
2018-05-19T20:26:33.314Z,16.93
2018-05-19T20:29:00.869Z,17.18
2018-05-19T20:31:28.400Z,17.12
2018-05-19T20:33:56.544Z,17.21
2018-05-19T20:36:24.365Z,17.33
2018-05-19T20:38:51.889Z,17.29
2018-05-19T20:41:19.415Z,17.36
2018-05-19T20:43:47.643Z,17.36
2018-05-19T20:46:15.137Z,17.27
2018-05-19T20:48:42.734Z,17.00
2018-05-19T20:51:10.504Z,16.62
2018-05-19T20:53:37.987Z,16.66
2018-05-19T20:56:05.565Z,16.48
2018-05-19T20:58:33.414Z,16.32
2018-05-19T21:01:01.223Z,16.13
2018-05-19T21:03:28.748Z,16.56
2018-05-19T21:05:56.395Z,16.72
2018-05-19T21:08:23.909Z,16.89
2018-05-19T21:10:51.448Z,16.80
2018-05-19T21:13:19.252Z,16.74
2018-05-19T21:15:46.786Z,16.50
2018-05-19T21:18:14.305Z,16.41
2018-05-19T21:20:41.936Z,16.26
2018-05-19T21:23:09.448Z,16.57
2018-05-19T21:25:36.962Z,16.47
2018-05-19T21:28:04.753Z,16.44
2018-05-19T21:30:32.281Z,16.50
2018-05-19T21:32:59.800Z,16.69
2018-05-19T21:35:27.512Z,16.56
2018-05-19T21:37:55.028Z,16.57
2018-05-19T21:40:22.545Z,16.56
2018-05-19T21:42:50.240Z,16.43
2018-05-19T21:45:17.768Z,16.38
2018-05-19T21:47:45.285Z,16.40
2018-05-19T21:50:12.972Z,16.15
2018-05-19T21:52:40.500Z,15.95
2018-05-19T21:55:08.028Z,15.97
2018-05-19T21:57:35.828Z,16.10
2018-05-19T22:00:03.309Z,16.20
2018-05-19T22:02:31.096Z,16.31
2018-05-19T22:04:58.849Z,16.23
2018-05-19T22:07:26.417Z,15.98
2018-05-19T22:09:53.937Z,16.09
2018-05-19T22:12:21.527Z,16.18
2018-05-19T22:14:49.063Z,16.13
2018-05-19T22:17:16.597Z,16.09
2018-05-19T22:19:44.305Z,16.03
2018-05-19T22:22:11.828Z,16.08
2018-05-19T22:24:39.348Z,15.93
2018-05-19T22:27:07.084Z,15.98
2018-05-19T22:29:35.170Z,15.73
2018-05-19T22:32:02.792Z,15.75
2018-05-19T22:34:30.477Z,15.45
2018-05-19T22:36:58.002Z,15.53
2018-05-19T22:39:25.525Z,15.92
2018-05-19T22:41:53.082Z,16.00
2018-05-19T22:44:20.607Z,15.82
2018-05-19T22:46:48.132Z,15.89
2018-05-19T22:49:15.940Z,15.95
2018-05-19T22:51:44.456Z,15.96
2018-05-19T22:54:11.977Z,15.83
2018-05-19T22:56:39.839Z,15.91
2018-05-19T22:59:07.448Z,15.95
2018-05-19T23:01:34.968Z,15.79
2018-05-19T23:04:02.724Z,15.80
2018-05-19T23:06:30.272Z,15.92
2018-05-19T23:08:57.792Z,15.89
2018-05-19T23:11:25.495Z,15.92
2018-05-19T23:13:53.021Z,15.89
2018-05-19T23:16:20.546Z,15.84
2018-05-19T23:18:48.492Z,15.98
2018-05-19T23:21:16.020Z,15.99
2018-05-19T23:23:43.562Z,15.97
2018-05-19T23:26:11.601Z,16.05
2018-05-19T23:28:39.129Z,16.05
2018-05-19T23:31:06.652Z,16.12
2018-05-19T23:33:34.213Z,16.22
2018-05-19T23:36:01.737Z,16.27
2018-05-19T23:38:29.269Z,16.27
2018-05-19T23:40:56.817Z,16.21
2018-05-19T23:43:24.344Z,16.15
2018-05-19T23:45:51.864Z,16.10
2018-05-19T23:48:19.418Z,16.15
2018-05-19T23:50:46.946Z,16.15
2018-05-19T23:53:14.483Z,16.02
2018-05-19T23:55:42.534Z,16.09
2018-05-19T23:58:10.063Z,16.01
